Time;durP1;ratioP1;P1;durP2;ratioP2;P2;SDS_P1;SDS_P2;PMS_P1;PMS_P2;Temp;Humidity;BMP_temperature;BMP_pressure;BME280_temperature;BME280_humidity;BME280_pressure;Samples;Min_cycle;Max_cycle;Signal;HPM_P1;HPM_P2
2022/12/27 00:01:33;;;;;;;42.30;23.20;;;5.40;99.10;;;5.25;64.34;95708.28;4994571;28;20484;-57
2022/12/27 00:04:00;;;;;;;49.20;24.73;;;5.40;99.10;;;5.25;64.45;95710.03;5005518;28;20449;-58
2022/12/27 00:06:28;;;;;;;44.30;22.00;;;5.40;99.20;;;5.24;64.15;95708.38;5001543;28;20459;-57
2022/12/27 00:08:55;;;;;;;48.70;23.60;;;5.40;99.10;;;5.23;63.74;95707.50;4998743;28;20496;-58
2022/12/27 00:11:24;;;;;;;37.57;22.33;;;5.30;99.10;;;5.19;64.35;95709.47;4996032;28;20465;-57
2022/12/27 00:13:53;;;;;;;48.27;25.90;;;5.30;99.20;;;5.20;64.12;95705.06;4997654;28;20924;-54
2022/12/27 00:16:21;;;;;;;53.83;24.17;;;5.30;99.10;;;5.20;64.41;95703.31;4998014;28;20537;-57
2022/12/27 00:18:48;;;;;;;42.30;23.17;;;5.40;99.20;;;5.18;64.45;95704.31;5003309;28;20493;-58
2022/12/27 00:21:16;;;;;;;55.30;24.03;;;5.30;99.40;;;5.16;64.32;95695.75;5001483;28;20473;-57
2022/12/27 00:23:45;;;;;;;55.30;23.93;;;5.30;99.30;;;5.13;64.52;95696.75;5002074;28;20473;-54
2022/12/27 00:26:14;;;;;;;49.30;26.00;;;5.30;99.20;;;5.11;64.50;95701.22;5000282;28;20462;-55
2022/12/27 00:28:41;;;;;;;45.47;24.00;;;5.30;99.40;;;5.11;64.60;95702.97;5000914;28;20502;-57
2022/12/27 00:31:10;;;;;;;47.97;26.60;;;5.20;99.40;;;5.07;64.56;95699.72;4996613;28;20471;-58
2022/12/27 00:33:38;;;;;;;50.67;24.07;;;5.20;99.50;;;5.06;64.47;95707.63;4998674;28;20482;-58
2022/12/27 00:36:07;;;;;;;41.13;25.33;;;5.20;99.40;;;5.05;64.79;95700.72;4998218;28;20458;-57
2022/12/27 00:38:35;;;;;;;63.30;30.57;;;5.20;99.90;;;5.02;65.10;95720.81;4996206;28;20477;-56
2022/12/27 00:41:02;;;;;;;48.00;28.50;;;5.20;99.90;;;4.99;64.65;95721.00;4998256;28;20508;-56
2022/12/27 00:43:29;;;;;;;56.43;29.87;;;5.10;99.70;;;5.00;65.42;95719.22;4997588;28;20482;-55
2022/12/27 00:45:57;;;;;;;72.07;35.67;;;5.10;99.90;;;4.99;64.96;95730.59;4997790;28;20450;-56
2022/12/27 00:48:25;;;;;;;55.97;31.27;;;5.10;99.80;;;4.96;65.28;95725.53;4994627;28;21063;-57
2022/12/27 00:50:58;;;;;;;82.27;39.17;;;5.10;99.90;;;4.93;65.24;95730.94;4999977;28;20845;-56
2022/12/27 00:53:25;;;;;;;64.17;35.87;;;5.10;99.90;;;4.91;65.41;95728.41;5001284;28;20552;-55
2022/12/27 00:55:53;;;;;;;70.13;33.17;;;5.00;99.90;;;4.90;65.16;95737.13;4997208;28;20454;-56
2022/12/27 00:58:20;;;;;;;82.70;41.57;;;5.00;99.90;;;4.91;65.15;95727.53;4997715;28;20984;-56
2022/12/27 01:00:47;;;;;;;90.93;43.40;;;5.00;99.90;;;4.85;65.17;95731.34;5003287;28;20454;-55
2022/12/27 01:03:14;;;;;;;91.13;43.80;;;5.00;99.90;;;4.82;65.45;95729.75;4995303;28;20489;-57
2022/12/27 01:05:43;;;;;;;102.90;43.50;;;5.00;99.90;;;4.81;65.61;95729.81;5000188;28;20461;-55
2022/12/27 01:08:10;;;;;;;92.33;44.30;;;5.00;99.90;;;4.80;65.69;95741.16;4998877;28;20493;-54
2022/12/27 01:10:39;;;;;;;87.77;42.63;;;4.90;99.90;;;4.77;65.36;95725.69;4994817;28;20466;-55
2022/12/27 01:13:07;;;;;;;121.93;58.90;;;4.90;99.90;;;4.73;65.73;95718.97;4997080;28;20932;-57
2022/12/27 01:15:34;;;;;;;129.03;61.67;;;4.90;99.90;;;4.66;65.80;95718.44;4994543;28;20451;-57
2022/12/27 01:18:01;;;;;;;138.37;63.77;;;4.90;99.90;;;4.60;66.24;95709.22;4995992;28;20473;-56
2022/12/27 01:20:29;;;;;;;129.40;62.80;;;4.80;99.90;;;4.58;66.55;95715.44;4994267;28;20532;-55
2022/12/27 01:22:57;;;;;;;134.80;63.60;;;4.70;99.90;;;4.56;66.54;95720.72;4995910;28;20524;-57
2022/12/27 01:25:24;;;;;;;112.80;58.00;;;4.70;99.90;;;4.55;66.54;95711.22;4993419;28;20454;-54
2022/12/27 01:27:52;;;;;;;112.33;56.17;;;4.70;99.90;;;4.54;66.23;95706.94;4996011;28;20493;-57
2022/12/27 01:30:19;;;;;;;99.03;50.40;;;4.70;99.90;;;4.52;66.51;95705.34;4996853;28;20461;-57
2022/12/27 01:32:46;;;;;;;91.60;44.67;;;4.70;99.90;;;4.49;66.56;95701.13;4995393;28;21053;-55
2022/12/27 01:35:13;;;;;;;95.03;48.57;;;4.60;99.90;;;4.48;66.98;95708.09;4993978;28;21014;-57
2022/12/27 01:37:41;;;;;;;91.53;45.00;;;4.60;99.90;;;4.50;66.71;95708.03;4995738;28;20473;-56
2022/12/27 01:40:11;;;;;;;90.27;43.87;;;4.60;99.90;;;4.49;66.62;95701.13;4997004;28;20572;-54
2022/12/27 01:42:52;;;;;;;92.27;41.60;;;4.60;99.90;;;4.47;66.82;95709.00;4998161;28;21092;-53
2022/12/27 01:45:20;;;;;;;163.73;68.00;;;4.60;99.90;;;4.45;66.73;95704.84;4994815;28;20458;-54
2022/12/27 01:47:51;;;;;;;112.63;49.53;;;4.60;99.90;;;4.46;67.20;95699.53;4995473;28;20502;-57
2022/12/27 01:50:24;;;;;;;80.63;40.20;;;4.60;99.90;;;4.49;66.46;95704.59;4998135;28;20453;-57
2022/12/27 01:53:01;;;;;;;81.57;38.60;;;4.60;99.90;;;4.51;66.69;95701.91;4996143;28;20477;-57
2022/12/27 01:55:34;;;;;;;75.90;38.10;;;4.60;99.90;;;4.48;67.09;95705.50;4995849;28;20450;-54
2022/12/27 01:58:07;;;;;;;80.03;37.10;;;4.60;99.90;;;4.48;67.02;95700.28;4997051;28;20994;-56
2022/12/27 02:00:34;;;;;;;78.47;40.53;;;4.60;99.90;;;4.52;66.41;95706.16;5000951;28;20509;-54
2022/12/27 02:03:01;;;;;;;79.57;40.17;;;4.60;99.90;;;4.56;66.81;95701.66;4999993;28;20479;-58
2022/12/27 02:05:29;;;;;;;96.60;45.10;;;4.70;99.90;;;4.58;66.94;95703.22;4998643;28;20450;-54
2022/12/27 02:08:11;;;;;;;85.17;42.97;;;4.70;99.90;;;4.60;66.55;95704.00;5000586;28;20498;-57
2022/12/27 02:10:39;;;;;;;80.43;43.20;;;4.70;99.90;;;4.62;66.54;95706.53;4998930;28;20445;-57
2022/12/27 02:13:06;;;;;;;82.80;40.20;;;4.70;99.90;;;4.62;66.74;95701.31;4996454;28;20508;-54
2022/12/27 02:15:34;;;;;;;86.20;42.53;;;4.80;99.90;;;4.61;66.54;95710.88;4997404;28;20469;-54
2022/12/27 02:18:01;;;;;;;82.90;43.03;;;4.70;99.90;;;4.60;66.80;95709.22;4993147;28;20544;-57
2022/12/27 02:20:32;;;;;;;90.47;43.27;;;4.70;99.90;;;4.59;66.68;95710.13;4995597;28;20457;-55
2022/12/27 02:26:53;;;;;;;87.93;44.87;;;4.70;99.90;;;4.51;66.83;95709.72;4918243;29;21005;-57
2022/12/27 02:29:56;;;;;;;84.30;43.17;;;4.70;99.90;;;4.50;66.94;95705.41;4988002;28;20492;-56
2022/12/27 02:32:28;;;;;;;81.90;41.80;;;4.60;99.90;;;4.46;66.00;95717.78;4996076;28;21012;-58
2022/12/27 02:35:08;;;;;;;81.13;42.70;;;4.60;99.90;;;4.46;66.60;95712.56;4998460;28;20446;-56
2022/12/27 02:37:39;;;;;;;91.90;43.50;;;4.60;99.90;;;4.46;66.51;95701.28;4999717;28;20846;-56
2022/12/27 02:54:07;;;;;;;79.03;41.40;;;4.50;99.90;;;4.33;66.45;95705.47;4998294;28;20868;-56
2022/12/27 03:03:19;;;;;;;80.57;43.00;;;4.50;99.90;;;4.30;66.80;95704.69;5003292;28;20437;-57
2022/12/27 03:05:24;;;;;;;87.27;42.30;;;4.40;99.90;;;4.26;66.54;95700.59;4996405;28;20762;-54
2022/12/27 03:07:55;;;;;;;71.37;38.40;;;4.40;99.90;;;4.24;66.70;95696.38;4998713;28;20555;-55
2022/12/27 03:16:17;;;;;;;68.40;39.60;;;4.40;99.90;;;4.21;66.61;95713.00;4998392;28;20823;-54
2022/12/27 03:19:05;;;;;;;71.93;38.53;;;4.40;99.90;;;4.20;66.36;95708.72;4998607;28;20954;-57
2022/12/27 03:27:16;;;;;;;76.30;40.53;;;4.30;99.90;;;4.16;66.42;95720.22;4995304;28;20992;-55
2022/12/27 03:35:30;;;;;;;79.30;40.13;;;4.30;99.90;;;4.13;66.48;95710.78;4957144;28;20565;-57
2022/12/27 03:38:03;;;;;;;72.97;38.87;;;4.30;99.90;;;4.13;66.44;95716.00;4997547;28;20490;-57
2022/12/27 03:43:38;;;;;;;75.27;39.80;;;4.30;99.90;;;4.10;66.29;95707.50;4999824;28;20476;-56
2022/12/27 03:49:11;;;;;;;88.43;44.63;;;4.20;99.90;;;4.08;66.29;95706.75;4998094;28;20521;-58
2022/12/27 03:51:42;;;;;;;92.00;43.27;;;4.20;99.90;;;4.07;66.54;95715.47;5003158;28;20513;-53
2022/12/27 03:54:11;;;;;;;79.03;40.80;;;4.20;99.90;;;4.05;66.33;95717.34;4996548;28;20446;-55
2022/12/27 03:56:40;;;;;;;81.97;38.20;;;4.20;99.90;;;4.04;66.26;95700.03;4997373;28;20974;-55
2022/12/27 03:59:07;;;;;;;69.83;37.70;;;4.20;99.90;;;4.05;66.45;95706.91;5003651;28;21182;-58
2022/12/27 04:01:35;;;;;;;74.37;37.37;;;4.20;99.90;;;4.04;66.39;95705.22;4996779;28;20446;-56
2022/12/27 04:04:02;;;;;;;79.30;38.10;;;4.20;99.90;;;4.02;66.72;95705.31;4995903;28;20556;-58
2022/12/27 04:06:29;;;;;;;76.17;37.80;;;4.20;99.90;;;4.02;66.18;95718.31;4999931;28;20457;-57
2022/12/27 04:36:26;;;;;;;99.67;48.80;;;3.80;99.90;;;3.51;66.67;95738.25;4996624;28;20507;-58
2022/12/27 04:38:53;;;;;;;106.57;49.10;;;3.80;99.90;;;3.49;66.35;95746.13;4995633;28;20485;-62
2022/12/27 04:55:16;;;;;;;94.03;43.77;;;3.70;99.90;;;3.50;66.82;95763.41;4997763;28;20453;-57
2022/12/27 04:57:44;;;;;;;91.00;43.93;;;3.70;99.90;;;3.46;66.28;95750.66;4993081;28;20493;-55
2022/12/27 05:02:58;;;;;;;93.17;47.90;;;3.70;99.90;;;3.46;66.89;95756.69;4997982;28;20563;-57
2022/12/27 05:05:25;;;;;;;87.20;44.80;;;3.60;99.90;;;3.44;66.31;95742.91;4994119;28;20973;-55
2022/12/27 05:16:07;;;;;;;61.63;33.17;;;3.50;99.90;;;3.33;68.57;95727.84;4997377;28;21030;-58
2022/12/27 05:18:35;;;;;;;80.30;38.27;;;3.50;99.90;;;3.37;68.37;95726.75;4996081;28;20481;-57
2022/12/27 05:21:03;;;;;;;68.90;34.60;;;3.50;99.90;;;3.42;68.21;95729.13;4997768;28;20535;-57
2022/12/27 05:26:20;;;;;;;41.93;23.03;;;3.60;99.90;;;3.50;68.73;95719.22;4995024;28;20567;-55
2022/12/27 05:28:49;;;;;;;40.20;22.27;;;3.70;99.90;;;3.55;68.06;95704.22;4998349;28;20509;-56
2022/12/27 05:31:16;;;;;;;42.30;24.57;;;3.70;99.90;;;3.61;68.60;95702.22;4996479;28;20459;-58
2022/12/27 05:33:43;;;;;;;44.40;25.23;;;3.70;99.90;;;3.65;68.01;95707.19;5001863;28;20484;-55
2022/12/27 05:36:11;;;;;;;34.77;20.37;;;3.80;99.90;;;3.71;67.96;95703.44;4998443;28;20466;-54
2022/12/27 05:38:38;;;;;;;49.00;24.90;;;3.80;99.90;;;3.72;68.46;95711.16;5001736;28;20825;-58
2022/12/27 05:41:05;;;;;;;52.87;27.00;;;3.90;99.90;;;3.74;69.08;95718.91;4998581;28;20537;-55
2022/12/27 05:43:33;;;;;;;59.30;34.90;;;3.90;99.90;;;3.71;68.31;95742.47;5003085;28;20481;-57
2022/12/27 05:46:05;;;;;;;69.10;35.90;;;3.90;99.90;;;3.64;67.63;95735.88;4997857;28;20454;-55
2022/12/27 05:48:32;;;;;;;73.10;33.03;;;3.80;99.90;;;3.55;67.61;95735.41;5000178;28;20497;-58
2022/12/27 05:51:03;;;;;;;64.27;34.07;;;3.80;99.90;;;3.51;67.11;95744.28;5005332;28;20553;-58
2022/12/27 05:53:31;;;;;;;63.73;34.97;;;3.70;99.90;;;3.47;67.60;95742.75;4999304;28;20476;-57
2022/12/27 05:55:58;;;;;;;69.83;36.87;;;3.60;99.90;;;3.43;67.20;95745.59;5000795;28;20458;-58
2022/12/27 05:58:25;;;;;;;84.70;41.57;;;3.60;99.90;;;3.39;67.00;95744.88;4998051;28;20565;-57
2022/12/27 06:00:53;;;;;;;78.23;39.37;;;3.60;99.90;;;3.38;66.28;95746.66;5006247;28;20469;-57
2022/12/27 06:03:21;;;;;;;70.90;38.03;;;3.60;99.90;;;3.38;67.34;95746.66;4995164;28;21027;-55
2022/12/27 06:05:48;;;;;;;73.23;34.30;;;3.60;99.90;;;3.39;66.69;95747.47;5003672;28;20458;-56
2022/12/27 06:08:16;;;;;;;69.77;35.80;;;3.60;99.90;;;3.40;66.94;95746.56;5004936;28;20477;-57
2022/12/27 06:10:43;;;;;;;75.23;33.80;;;3.60;99.90;;;3.43;66.87;95751.63;5006917;28;20843;-57
2022/12/27 06:13:10;;;;;;;58.53;33.80;;;3.60;99.90;;;3.45;66.76;95751.56;5000147;28;20552;-56
2022/12/27 06:15:38;;;;;;;70.73;36.23;;;3.60;99.90;;;3.45;67.17;95760.19;4999546;28;20505;-56
2022/12/27 06:18:05;;;;;;;82.43;39.43;;;3.60;99.90;;;3.52;66.71;95765.94;4999327;28;20555;-60
2022/12/27 06:20:34;;;;;;;76.63;38.47;;;3.70;99.90;;;3.71;66.38;95761.50;4999490;28;20493;-56
2022/12/27 06:23:01;;;;;;;73.90;38.93;;;3.90;99.90;;;3.97;66.83;95761.13;4998964;28;20949;-54
2022/12/27 06:25:29;;;;;;;79.97;39.50;;;4.10;99.90;;;4.29;66.25;95759.47;5000897;28;20466;-55
2022/12/27 06:27:56;;;;;;;82.80;40.13;;;4.40;99.90;;;4.67;65.48;95767.88;5003773;28;20477;-57
2022/12/27 06:30:23;;;;;;;84.50;41.30;;;4.80;99.90;;;5.09;64.58;95757.81;4998711;28;20507;-54
2022/12/27 06:32:50;;;;;;;77.80;39.20;;;5.20;99.90;;;5.52;63.61;95760.66;5005445;28;20945;-58
2022/12/27 06:35:18;;;;;;;74.13;36.70;;;5.60;99.70;;;5.96;62.73;95759.00;5000708;28;20986;-57
2022/12/27 06:37:46;;;;;;;58.10;34.53;;;6.10;99.10;;;6.42;61.83;95758.94;4991023;28;20485;-58
2022/12/27 06:40:14;;;;;;;69.03;33.30;;;6.60;98.50;;;6.87;61.15;95760.59;5001941;28;20529;-56
2022/12/27 06:42:41;;;;;;;65.83;33.10;;;7.10;98.00;;;7.36;59.73;95752.28;5005890;28;20477;-60
2022/12/27 06:45:10;;;;;;;62.07;32.87;;;7.60;97.10;;;7.85;56.80;95754.34;4997501;28;20844;-56
2022/12/27 06:47:37;;;;;;;60.27;30.80;;;8.00;94.80;;;8.24;57.91;95752.59;4998313;28;20473;-57
2022/12/27 06:50:05;;;;;;;60.27;32.00;;;8.40;95.20;;;8.61;57.96;95750.13;4995917;28;20493;-59
2022/12/27 06:52:33;;;;;;;57.67;31.13;;;8.80;95.30;;;8.97;57.21;95752.91;5002522;28;21017;-58
2022/12/27 06:55:01;;;;;;;59.33;30.10;;;9.10;94.40;;;9.29;54.88;95750.59;5002817;28;21012;-57
2022/12/27 06:57:29;;;;;;;69.80;33.53;;;9.50;92.50;;;9.63;55.02;95755.22;5002168;28;20503;-57
2022/12/27 06:59:56;;;;;;;50.10;30.50;;;9.80;92.20;;;10.05;55.20;95759.09;5006054;28;20453;-55
2022/12/27 07:02:23;;;;;;;54.17;31.70;;;10.20;91.90;;;10.50;54.57;95747.03;5000601;28;20535;-58
2022/12/27 07:04:50;;;;;;;53.53;29.37;;;10.60;91.70;;;10.69;53.64;95749.91;5001971;28;20482;-58
2022/12/27 07:07:17;;;;;;;60.53;32.80;;;10.80;90.80;;;10.90;53.43;95746.56;5000156;28;20891;-53
2022/12/27 07:09:45;;;;;;;61.47;33.10;;;11.00;90.30;;;11.14;52.24;95743.81;4996223;28;20482;-55
2022/12/27 07:12:13;;;;;;;53.97;31.07;;;11.20;87.80;;;11.16;52.04;95739.25;5001357;28;20493;-58
2022/12/27 07:14:41;;;;;;;70.23;33.07;;;11.30;87.00;;;10.99;51.71;95737.94;4997168;28;20453;-57
2022/12/27 07:17:08;;;;;;;62.07;32.70;;;11.20;85.60;;;10.88;52.11;95737.97;4998992;28;20625;-52
2022/12/27 07:19:35;;;;;;;68.47;33.00;;;11.10;86.10;;;10.74;51.71;95739.88;5000966;28;20460;-58
2022/12/27 07:22:02;;;;;;;63.33;33.20;;;11.00;85.00;;;10.43;52.01;95737.94;4994600;28;20498;-56
2022/12/27 07:24:32;;;;;;;72.40;38.70;;;10.80;84.80;;;10.19;51.09;95744.06;5000058;28;20468;-54
2022/12/27 07:27:00;;;;;;;73.07;39.17;;;10.50;82.40;;;10.04;52.53;95740.81;5002463;28;20539;-59
2022/12/27 07:29:29;;;;;;;78.53;40.47;;;10.40;85.20;;;10.23;51.99;95741.09;4995208;28;21084;-55
2022/12/27 07:31:56;;;;;;;71.27;39.13;;;10.50;84.50;;;10.69;51.83;95749.91;5000159;28;20488;-59
2022/12/27 07:34:24;;;;;;;68.80;37.63;;;10.80;85.20;;;11.28;50.29;95743.53;5002616;28;20964;-57
2022/12/27 07:36:52;;;;;;;74.00;39.80;;;11.50;82.50;;;11.77;49.87;95741.38;4997050;28;20529;-56
2022/12/27 07:39:19;;;;;;;71.90;40.47;;;12.00;81.20;;;12.32;49.24;95740.44;4999235;28;20465;-59
2022/12/27 07:41:46;;;;;;;74.53;39.57;;;12.60;79.60;;;12.89;48.44;95730.31;4997141;28;20449;-58
2022/12/27 07:44:14;;;;;;;68.20;38.40;;;13.30;79.10;;;13.49;46.81;95730.34;5001495;28;20548;-58
2022/12/27 07:46:42;;;;;;;68.30;40.67;;;13.90;75.80;;;14.04;45.43;95729.84;4997068;28;20516;-55
2022/12/27 07:49:10;;;;;;;66.07;40.80;;;14.40;72.20;;;14.54;45.67;95731.44;4998826;28;20534;-56
2022/12/27 07:51:37;;;;;;;74.50;41.27;;;14.90;72.50;;;15.02;44.48;95725.19;4997718;28;21001;-59
2022/12/27 07:54:05;;;;;;;76.87;44.30;;;15.30;70.00;;;15.38;43.86;95725.31;4997973;28;20521;-59
2022/12/27 07:56:33;;;;;;;90.13;47.63;;;15.60;67.60;;;15.66;42.96;95730.56;4999625;28;20457;-58
2022/12/27 07:59:01;;;;;;;86.77;46.83;;;15.80;66.10;;;15.89;42.60;95738.94;5003998;28;20474;-55
2022/12/27 08:02:02;;;;;;;89.27;46.13;;;16.00;65.10;;;16.04;41.61;95739.25;4996159;28;20966;-55
2022/12/27 08:04:18;;;;;;;74.53;44.73;;;16.00;62.50;;;16.22;41.87;95743.69;5001340;28;20508;-54
2022/12/27 08:06:45;;;;;;;94.60;51.67;;;16.20;63.10;;;16.36;41.45;95735.22;4995433;28;21230;-57
2022/12/27 08:09:12;;;;;;;96.43;53.87;;;16.20;62.30;;;16.41;41.23;95740.88;4999329;28;21041;-58
2022/12/27 08:11:40;;;;;;;85.07;50.10;;;16.30;61.00;;;16.41;40.83;95742.72;4996778;28;20466;-52
2022/12/27 08:14:07;;;;;;;88.63;51.23;;;16.30;60.00;;;16.53;40.99;95740.63;5001125;28;20820;-52
2022/12/27 08:16:34;;;;;;;89.70;52.67;;;16.30;60.30;;;16.59;40.83;95743.50;4995703;28;20509;-52
2022/12/27 08:19:01;;;;;;;95.07;54.23;;;16.40;60.00;;;16.72;40.91;95753.72;4997287;28;20458;-52
2022/12/27 08:21:30;;;;;;;101.40;57.03;;;16.50;60.10;;;16.88;40.36;95750.34;5000354;28;20527;-55
2022/12/27 08:23:57;;;;;;;107.50;57.07;;;16.60;59.30;;;16.99;40.14;95754.56;4996326;28;20469;-55
2022/12/27 08:26:24;;;;;;;108.07;61.00;;;16.80;59.10;;;17.08;40.09;95756.28;4995232;28;20965;-55
2022/12/27 08:28:52;;;;;;;100.40;57.17;;;16.80;58.30;;;17.23;40.52;95745.03;5001871;28;20490;-56
2022/12/27 08:31:19;;;;;;;96.47;55.93;;;17.00;59.20;;;17.53;40.35;95754.31;5000787;28;20452;-54
2022/12/27 08:33:46;;;;;;;100.10;53.43;;;17.20;58.90;;;17.80;39.48;95745.25;4995844;28;20553;-53
2022/12/27 08:36:14;;;;;;;90.80;50.17;;;17.50;57.90;;;17.98;39.26;95728.34;4999477;28;20508;-53
2022/12/27 08:38:43;;;;;;;101.70;58.50;;;17.60;58.10;;;18.09;39.30;95728.84;4993180;28;20493;-55
2022/12/27 08:41:10;;;;;;;87.83;55.50;;;17.80;56.80;;;18.23;39.18;95722.03;4993421;28;20466;-53
2022/12/27 08:43:37;;;;;;;91.90;55.30;;;17.90;56.50;;;18.40;38.33;95736.19;5003264;28;20489;-57
2022/12/27 08:46:06;;;;;;;97.40;55.30;;;18.10;56.40;;;18.59;38.13;95743.00;4998480;28;20458;-55
2022/12/27 08:48:36;;;;;;;80.37;48.70;;;18.20;56.30;;;18.75;37.90;95738.66;4997309;28;20469;-55
2022/12/27 08:51:04;;;;;;;71.27;43.90;;;18.40;55.90;;;18.91;38.02;95727.97;4998340;28;21122;-54
2022/12/27 08:53:31;;;;;;;70.43;45.87;;;18.50;56.10;;;19.10;38.39;95720.56;4996878;28;20594;-55
2022/12/27 08:56:00;;;;;;;76.20;48.50;;;18.70;55.80;;;19.27;37.98;95724.88;5000273;28;20457;-54
2022/12/27 08:58:27;;;;;;;90.43;49.30;;;18.90;55.50;;;19.44;36.52;95730.97;4999242;28;20491;-57
2022/12/27 09:00:55;;;;;;;80.93;49.67;;;19.00;53.50;;;19.45;37.66;95735.28;4999751;28;20460;-54
2022/12/27 09:03:22;;;;;;;85.43;47.70;;;19.10;54.50;;;19.49;37.45;95714.44;5002166;28;21001;-54
2022/12/27 09:05:49;;;;;;;73.13;45.17;;;19.10;54.30;;;19.56;37.48;95718.06;4995372;28;20461;-57
2022/12/27 09:08:17;;;;;;;80.30;46.90;;;19.10;54.40;;;19.66;37.13;95702.66;4998785;28;20502;-57
2022/12/27 09:10:44;;;;;;;82.80;49.50;;;19.20;53.90;;;19.80;36.89;95705.59;4999965;28;20489;-55
2022/12/27 09:13:13;;;;;;;82.47;50.17;;;19.40;54.10;;;19.94;36.88;95707.53;5002250;28;20477;-56
2022/12/27 09:15:40;;;;;;;88.80;47.97;;;19.50;53.70;;;20.10;36.80;95700.41;5000475;28;20818;-55
2022/12/27 09:18:07;;;;;;;73.00;44.80;;;19.60;53.50;;;20.26;36.08;95691.44;5000448;28;20510;-56
2022/12/27 09:20:34;;;;;;;80.70;47.00;;;19.80;53.00;;;20.41;36.39;95693.13;5006628;28;20449;-56
2022/12/27 09:23:02;;;;;;;75.60;44.73;;;20.00;52.80;;;20.61;36.09;95689.94;5002238;28;20548;-54
2022/12/27 09:25:29;;;;;;;80.53;44.97;;;20.10;52.30;;;20.82;35.99;95683.06;5000497;28;20511;-55
2022/12/27 09:27:56;;;;;;;76.07;46.57;;;20.40;52.50;;;21.07;35.52;95679.13;4999689;28;20478;-54
2022/12/27 09:30:25;;;;;;;76.27;45.87;;;20.60;52.10;;;21.28;35.10;95678.34;4999761;28;20501;-55
2022/12/27 09:32:52;;;;;;;76.90;49.13;;;20.80;51.20;;;21.46;34.82;95672.59;4996156;28;20470;-56
2022/12/27 09:35:20;;;;;;;79.37;47.50;;;21.00;50.10;;;21.61;34.36;95672.59;5002941;28;20511;-56
2022/12/27 09:37:47;;;;;;;79.93;48.93;;;21.10;50.10;;;21.76;34.50;95674.41;5000243;28;20486;-57
2022/12/27 09:40:15;;;;;;;76.60;45.63;;;21.30;50.20;;;21.92;33.86;95667.97;5002721;28;20991;-57
2022/12/27 09:42:45;;;;;;;88.73;47.87;;;21.40;49.70;;;22.00;33.14;95670.53;4999873;28;21379;-53
2022/12/27 09:45:15;;;;;;;85.97;50.13;;;21.50;48.30;;;22.02;32.42;95663.13;5004151;28;20815;-58
2022/12/27 09:47:50;;;;;;;84.17;50.00;;;21.50;47.30;;;22.05;33.44;95665.41;5000928;28;20849;-55
2022/12/27 09:50:20;;;;;;;85.03;47.57;;;21.50;48.40;;;22.17;33.68;95665.75;5000750;28;20483;-58
2022/12/27 09:52:54;;;;;;;78.10;46.70;;;21.60;48.40;;;22.36;32.57;95667.78;4996197;28;20486;-56
2022/12/27 09:55:23;;;;;;;80.43;44.83;;;21.80;48.10;;;22.54;32.49;95666.47;4997325;28;20461;-55
2022/12/27 09:57:51;;;;;;;80.70;48.50;;;21.90;47.50;;;22.66;31.91;95661.41;4994633;28;20477;-56
2022/12/27 10:00:22;;;;;;;71.13;46.67;;;22.10;46.70;;;22.79;32.30;95652.59;4996570;28;20458;-56
2022/12/27 10:02:51;;;;;;;84.03;48.17;;;22.20;47.10;;;23.02;32.31;95642.44;4998964;28;20560;-54
2022/12/27 10:05:20;;;;;;;79.07;48.53;;;22.40;47.40;;;23.37;32.82;95630.84;5000173;28;20461;-57
2022/12/27 10:08:01;;;;;;;102.70;52.23;;;22.70;47.50;;;23.70;31.52;95627.41;5000190;28;20473;-59
2022/12/27 10:10:41;;;;;;;105.67;57.00;;;23.00;46.90;;;23.99;30.48;95627.06;5001019;28;20485;-60
2022/12/27 10:13:30;;;;;;;96.53;55.00;;;23.40;45.90;;;24.26;30.86;95632.50;4998103;28;20597;-58
2022/12/27 10:16:05;;;;;;;113.50;58.43;;;23.70;45.60;;;24.42;29.59;95627.72;4995217;28;20840;-58
2022/12/27 10:18:44;;;;;;;102.67;58.83;;;23.90;43.90;;;24.44;30.27;95623.78;5007361;28;20956;-57
2022/12/27 10:21:17;;;;;;;115.70;60.70;;;24.00;44.00;;;24.40;30.22;95622.56;5000549;28;20495;-57
2022/12/27 10:23:49;;;;;;;104.63;59.87;;;24.00;44.10;;;24.44;29.86;95617.59;5004146;28;20876;-55
2022/12/27 10:26:18;;;;;;;97.10;55.27;;;24.00;43.20;;;24.36;30.27;95617.81;5001380;28;20489;-53
2022/12/27 10:28:46;;;;;;;86.03;52.90;;;23.90;43.10;;;24.34;29.93;95623.41;5009762;28;20484;-56
2022/12/27 10:31:15;;;;;;;79.97;52.03;;;23.90;43.50;;;24.49;30.29;95621.31;4999138;28;20861;-57
2022/12/27 10:33:43;;;;;;;84.57;50.83;;;24.00;44.60;;;24.84;30.01;95623.75;5003297;28;21309;-57
2022/12/27 10:36:14;;;;;;;82.93;46.97;;;24.20;44.60;;;25.35;29.80;95629.44;5004790;28;20453;-59
2022/12/27 10:38:41;;;;;;;72.80;46.33;;;24.50;44.30;;;25.89;29.04;95617.31;5006585;28;20905;-55
2022/12/27 10:41:22;;;;;;;76.43;40.90;;;25.00;43.50;;;26.37;28.65;95617.81;5007646;28;20461;-55
2022/12/27 10:43:52;;;;;;;70.27;44.30;;;25.50;42.90;;;26.87;28.19;95611.56;5006210;28;20495;-55
2022/12/27 10:46:21;;;;;;;71.13;44.83;;;25.90;42.50;;;27.31;28.16;95615.88;5005076;28;20834;-57
2022/12/27 10:48:56;;;;;;;64.87;40.33;;;26.40;41.90;;;27.71;27.13;95615.31;5001206;28;21025;-59
2022/12/27 10:51:24;;;;;;;56.43;35.03;;;26.80;40.70;;;27.93;26.77;95619.41;4999317;28;21040;-59
2022/12/27 10:54:01;;;;;;;55.40;36.33;;;27.10;39.90;;;28.19;27.14;95601.97;5003196;28;20485;-57
2022/12/27 10:56:29;;;;;;;40.93;29.60;;;27.40;40.50;;;28.54;27.10;95599.28;4999075;28;20458;-62
2022/12/27 10:59:11;;;;;;;52.93;30.80;;;27.70;40.30;;;28.95;26.03;95599.41;5007930;28;21192;-56
2022/12/27 11:01:38;;;;;;;39.70;26.20;;;28.10;39.90;;;29.32;25.93;95601.84;5005772;28;20949;-58
2022/12/27 11:04:15;;;;;;;44.70;26.47;;;28.50;39.40;;;29.75;25.76;95607.81;5000405;28;20457;-58
2022/12/27 11:06:43;;;;;;;32.53;21.27;;;28.80;38.60;;;30.03;25.35;95596.16;5006719;28;20877;-59
2022/12/27 11:09:35;;;;;;;33.33;21.30;;;29.10;38.40;;;30.02;24.27;95594.50;5001539;28;20531;-58
2022/12/27 11:12:16;;;;;;;30.87;19.80;;;29.30;36.50;;;29.86;25.49;95598.84;4987132;28;20611;-55
2022/12/27 11:14:55;;;;;;;28.53;21.60;;;29.40;37.10;;;29.90;24.35;95593.72;5003191;28;20457;-53
2022/12/27 11:17:24;;;;;;;32.93;21.10;;;29.40;36.80;;;29.92;24.83;95588.91;5004259;28;20474;-59
2022/12/27 11:19:52;;;;;;;33.27;22.10;;;29.50;37.40;;;29.75;25.36;95586.94;5003370;28;20541;-59
2022/12/27 11:22:20;;;;;;;33.00;22.90;;;29.60;37.10;;;29.25;25.44;95585.72;4997249;28;20480;-59
2022/12/27 11:24:49;;;;;;;26.63;20.07;;;29.60;36.90;;;28.91;26.62;95584.72;5005549;28;20540;-57
2022/12/27 11:27:23;;;;;;;33.23;21.03;;;29.50;37.10;;;28.60;26.55;95576.72;5007151;28;20530;-55
2022/12/27 11:29:51;;;;;;;28.87;22.10;;;29.20;37.50;;;28.30;27.02;95578.69;4996976;28;20458;-58
2022/12/27 11:32:19;;;;;;;25.37;19.33;;;28.90;37.90;;;27.89;26.85;95589.31;4995919;28;20479;-56
2022/12/27 11:34:47;;;;;;;31.30;19.13;;;28.50;37.50;;;27.35;27.65;95583.81;4998687;28;20527;-60
2022/12/27 11:37:18;;;;;;;31.53;21.43;;;28.00;38.70;;;26.77;28.05;95580.53;4995875;28;20501;-59
2022/12/27 11:39:46;;;;;;;31.60;19.47;;;27.30;39.30;;;26.06;28.65;95577.19;4999283;28;20453;-55
2022/12/27 11:42:19;;;;;;;30.47;22.57;;;26.50;39.80;;;25.14;29.38;95592.81;4995972;28;20477;-60
2022/12/27 11:44:52;;;;;;;33.10;20.53;;;25.60;39.90;;;24.09;30.48;95588.22;5000561;28;20457;-60
2022/12/27 11:47:29;;;;;;;32.60;21.73;;;24.60;41.70;;;23.15;31.34;95579.97;4992884;28;20537;-57
2022/12/27 11:49:59;;;;;;;39.27;25.50;;;23.60;42.70;;;22.35;32.46;95587.56;4998956;28;20529;-60
2022/12/27 11:53:01;;;;;;;31.70;21.57;;;22.70;43.80;;;21.45;33.55;95587.97;4999870;28;20849;-59
2022/12/27 11:55:38;;;;;;;38.93;24.43;;;21.80;44.90;;;20.80;34.69;95583.50;4995133;28;20524;-54
2022/12/27 11:58:43;;;;;;;53.20;28.07;;;21.00;46.20;;;20.14;36.00;95587.69;4996553;28;20536;-60
2022/12/27 12:01:28;;;;;;;57.80;29.10;;;20.30;47.30;;;19.62;36.64;95577.75;4998935;28;20446;-55
2022/12/27 12:04:38;;;;;;;41.37;22.40;;;19.70;48.40;;;19.06;37.18;95580.63;4994881;28;20477;-55
2022/12/27 12:07:11;;;;;;;34.40;22.53;;;19.10;49.30;;;18.59;38.06;95603.59;4990910;28;20475;-56